createdAt,value
2022-12-20T00:01:09.721Z,88.54
2022-12-20T00:03:37.963Z,88.16
2022-12-20T00:06:06.159Z,88.73
2022-12-20T00:08:36.163Z,88.44
2022-12-20T00:11:07.336Z,88.65
2022-12-20T00:13:35.453Z,88.91
2022-12-20T00:16:08.168Z,89.00
2022-12-20T00:18:36.012Z,87.94
2022-12-20T00:21:05.670Z,87.92
2022-12-20T00:23:33.458Z,88.17
2022-12-20T00:26:02.862Z,88.58
2022-12-20T00:28:32.287Z,88.67
2022-12-20T00:31:00.522Z,89.13
2022-12-20T00:33:28.330Z,88.60
2022-12-20T00:35:57.128Z,88.61
2022-12-20T00:38:25.636Z,88.84
2022-12-20T00:41:01.375Z,89.32
2022-12-20T00:43:29.468Z,89.03
2022-12-20T00:45:58.762Z,89.37
2022-12-20T00:48:26.891Z,89.10
2022-12-20T00:50:59.165Z,88.81
2022-12-20T00:53:26.992Z,88.09
2022-12-20T00:55:54.883Z,89.52
2022-12-20T00:58:22.691Z,88.90
2022-12-20T01:00:56.147Z,89.00
2022-12-20T01:03:26.508Z,89.76
2022-12-20T01:05:57.151Z,89.26
2022-12-20T01:08:25.618Z,88.88
2022-12-20T01:11:00.115Z,88.92
2022-12-20T01:13:28.428Z,88.63
2022-12-20T01:15:56.678Z,89.09
2022-12-20T01:18:25.830Z,88.73
2022-12-20T01:21:02.352Z,89.40
2022-12-20T01:23:30.720Z,88.46
2022-12-20T01:25:59.719Z,88.82
2022-12-20T01:28:27.754Z,88.53
2022-12-20T01:30:55.571Z,87.76
2022-12-20T01:33:23.455Z,88.06
2022-12-20T01:36:00.059Z,88.24
2022-12-20T01:38:28.162Z,88.43
2022-12-20T01:40:57.368Z,88.21
2022-12-20T01:43:26.943Z,87.94
2022-12-20T01:45:54.877Z,87.93
2022-12-20T01:48:25.766Z,88.27
2022-12-20T01:50:54.290Z,88.40
2022-12-20T01:53:25.523Z,87.77
2022-12-20T01:55:54.923Z,88.06
2022-12-20T01:58:23.211Z,87.92
2022-12-20T02:00:51.070Z,87.96
2022-12-20T02:03:19.016Z,87.34
2022-12-20T02:05:47.741Z,87.10
2022-12-20T02:08:19.297Z,86.90
2022-12-20T02:11:10.771Z,88.01
2022-12-20T02:13:49.774Z,87.91
2022-12-20T02:16:24.205Z,87.59
2022-12-20T02:18:56.595Z,87.14
2022-12-20T02:21:35.296Z,87.73
2022-12-20T02:24:27.869Z,87.78
2022-12-20T02:27:31.324Z,87.96
2022-12-20T02:30:10.156Z,88.10
2022-12-20T02:32:43.765Z,87.86
2022-12-20T02:35:15.295Z,88.13
2022-12-20T02:37:51.270Z,87.67
2022-12-20T02:40:23.565Z,87.56
2022-12-20T02:42:54.898Z,88.20
2022-12-20T02:45:27.367Z,87.24
2022-12-20T02:48:00.770Z,87.50
2022-12-20T02:50:33.602Z,87.44
2022-12-20T02:53:01.757Z,88.15
2022-12-20T02:55:40.296Z,88.26
2022-12-20T02:58:18.642Z,89.20
2022-12-20T03:00:54.263Z,88.83
2022-12-20T03:03:25.750Z,88.88
2022-12-20T03:05:56.135Z,88.05
2022-12-20T03:08:24.911Z,87.38
2022-12-20T03:10:54.546Z,87.89
2022-12-20T03:13:22.776Z,88.68
2022-12-20T03:15:52.585Z,89.22
2022-12-20T03:18:20.448Z,88.29
2022-12-20T03:20:48.467Z,88.27
2022-12-20T03:23:16.248Z,87.77
2022-12-20T03:25:44.063Z,87.42
2022-12-20T03:28:11.865Z,87.69
2022-12-20T03:30:39.998Z,87.95
2022-12-20T03:33:09.306Z,87.56
2022-12-20T03:35:37.123Z,87.62
2022-12-20T03:38:04.961Z,87.66
2022-12-20T03:40:32.895Z,87.54
2022-12-20T03:43:00.824Z,88.64
2022-12-20T03:45:28.699Z,88.30
2022-12-20T03:47:56.465Z,88.07
2022-12-20T03:50:25.722Z,87.73
2022-12-20T03:52:53.592Z,87.89
2022-12-20T03:55:21.459Z,87.78
2022-12-20T03:57:49.245Z,88.42
2022-12-20T04:00:18.181Z,88.13
2022-12-20T04:02:46.201Z,87.77
2022-12-20T04:05:14.174Z,88.64
2022-12-20T04:07:43.502Z,87.91
2022-12-20T04:10:12.292Z,88.43
2022-12-20T04:12:40.078Z,87.95
2022-12-20T04:15:09.811Z,87.63
2022-12-20T04:17:37.809Z,88.38
2022-12-20T04:20:18.982Z,88.01
2022-12-20T04:22:48.680Z,88.07
2022-12-20T04:25:18.510Z,87.87
2022-12-20T04:27:46.677Z,87.88
2022-12-20T04:30:15.216Z,87.78
2022-12-20T04:32:43.039Z,87.91
2022-12-20T04:35:11.783Z,88.53
2022-12-20T04:37:43.067Z,88.97
2022-12-20T04:40:13.191Z,88.75
2022-12-20T04:42:41.047Z,88.74
2022-12-20T04:45:09.630Z,88.92
2022-12-20T04:47:49.250Z,89.16
2022-12-20T04:50:18.475Z,88.36
2022-12-20T04:53:03.862Z,88.88
2022-12-20T04:55:37.551Z,89.34
2022-12-20T04:58:07.858Z,89.36
2022-12-20T05:00:36.574Z,89.03
2022-12-20T05:03:04.654Z,88.64
2022-12-20T05:05:32.859Z,88.44
2022-12-20T05:08:00.861Z,88.42
2022-12-20T05:10:28.838Z,88.22
2022-12-20T05:12:58.146Z,87.91
2022-12-20T05:15:26.094Z,87.28
2022-12-20T05:17:59.357Z,87.65
2022-12-20T05:20:28.198Z,88.47
2022-12-20T05:23:13.500Z,88.26
2022-12-20T05:26:01.389Z,88.09
2022-12-20T05:28:31.256Z,87.57
2022-12-20T05:30:59.312Z,87.37
2022-12-20T05:33:33.651Z,87.20
2022-12-20T05:36:02.082Z,87.45
2022-12-20T05:38:30.054Z,88.08
2022-12-20T05:40:58.067Z,88.61
2022-12-20T05:43:25.901Z,88.81
2022-12-20T05:45:55.100Z,88.91
2022-12-20T05:48:23.017Z,87.99
2022-12-20T05:50:50.857Z,87.91
2022-12-20T05:53:19.144Z,87.60
2022-12-20T05:55:49.283Z,87.87
2022-12-20T05:58:17.170Z,88.63
2022-12-20T06:00:45.701Z,88.39
2022-12-20T06:03:17.093Z,88.45
2022-12-20T06:05:45.970Z,87.89
2022-12-20T06:08:14.860Z,87.97
2022-12-20T06:10:42.734Z,88.21
2022-12-20T06:13:11.764Z,88.09
2022-12-20T06:15:39.965Z,87.90
2022-12-20T06:18:08.121Z,88.38
2022-12-20T06:20:37.688Z,88.91
2022-12-20T06:23:05.650Z,89.77
2022-12-20T06:25:33.653Z,89.17
2022-12-20T06:28:01.511Z,89.08
2022-12-20T06:30:33.839Z,89.35
2022-12-20T06:33:02.230Z,88.99
2022-12-20T06:35:30.635Z,89.00
2022-12-20T06:37:59.996Z,89.68
2022-12-20T06:40:28.435Z,89.30
2022-12-20T06:42:56.394Z,89.25
2022-12-20T06:45:27.294Z,88.90
2022-12-20T06:47:55.382Z,89.75
2022-12-20T06:50:23.695Z,89.21
2022-12-20T06:52:51.443Z,89.10
2022-12-20T06:55:20.640Z,89.20
2022-12-20T06:57:48.514Z,88.43
2022-12-20T07:00:17.969Z,88.23
2022-12-20T07:02:46.528Z,88.06
2022-12-20T07:05:14.728Z,88.06
2022-12-20T07:07:45.023Z,87.67
2022-12-20T07:10:13.674Z,87.53
2022-12-20T07:12:47.745Z,88.50
2022-12-20T07:15:31.535Z,88.60
2022-12-20T07:18:00.443Z,88.15
2022-12-20T07:20:28.275Z,87.95
2022-12-20T07:22:56.301Z,88.56
2022-12-20T07:25:24.787Z,88.31
2022-12-20T07:27:54.333Z,89.15
2022-12-20T07:30:23.277Z,89.26
2022-12-20T07:32:51.207Z,88.33
2022-12-20T07:35:19.370Z,88.12
2022-12-20T07:37:47.525Z,88.40
2022-12-20T07:40:16.358Z,87.73
2022-12-20T07:42:48.630Z,87.60
2022-12-20T07:45:18.626Z,87.95
2022-12-20T07:47:48.427Z,87.84
2022-12-20T07:50:16.249Z,87.82
2022-12-20T07:52:47.164Z,87.77
2022-12-20T07:55:16.119Z,87.55
2022-12-20T07:57:50.056Z,87.04
2022-12-20T08:00:20.047Z,87.81
2022-12-20T08:02:53.974Z,87.31
2022-12-20T08:05:23.226Z,87.55
2022-12-20T08:07:56.970Z,87.78
2022-12-20T08:10:27.633Z,87.27
2022-12-20T08:12:56.128Z,87.05
2022-12-20T08:15:26.275Z,87.15
2022-12-20T08:17:54.062Z,86.60
2022-12-20T08:20:21.974Z,86.67
2022-12-20T08:22:49.806Z,86.53
2022-12-20T08:25:17.660Z,86.70
2022-12-20T08:27:48.417Z,87.05
2022-12-20T08:30:16.811Z,86.54
2022-12-20T08:32:46.225Z,86.25
2022-12-20T08:35:14.652Z,85.72
2022-12-20T08:37:42.564Z,86.57
2022-12-20T08:40:11.574Z,87.43
2022-12-20T08:42:39.435Z,85.96
2022-12-20T08:45:08.086Z,85.32
2022-12-20T08:47:47.978Z,85.77
2022-12-20T08:50:17.357Z,85.82
2022-12-20T08:52:45.234Z,86.14
2022-12-20T08:55:13.373Z,85.90
2022-12-20T08:57:41.246Z,84.37
2022-12-20T09:00:12.182Z,84.13
2022-12-20T09:02:41.318Z,85.22
2022-12-20T09:05:10.051Z,86.38
2022-12-20T09:07:39.442Z,85.81
2022-12-20T09:10:09.133Z,85.60
2022-12-20T09:12:38.912Z,84.36
2022-12-20T09:15:08.084Z,83.84
2022-12-20T09:17:35.986Z,84.06
2022-12-20T09:20:04.068Z,83.93
2022-12-20T09:22:32.110Z,83.61
2022-12-20T09:25:01.280Z,82.95
2022-12-20T09:27:29.079Z,82.61
2022-12-20T09:29:57.271Z,82.65
2022-12-20T09:32:25.501Z,83.59
2022-12-20T09:34:53.294Z,84.35
2022-12-20T09:37:21.170Z,83.20
2022-12-20T09:39:49.879Z,84.05
2022-12-20T09:42:22.975Z,83.85
2022-12-20T09:44:50.911Z,84.21
2022-12-20T09:47:24.012Z,83.98
2022-12-20T09:49:55.003Z,83.06
2022-12-20T09:52:35.540Z,83.13
2022-12-20T09:55:17.100Z,82.76
2022-12-20T09:57:59.094Z,83.57
2022-12-20T10:00:27.025Z,83.82
2022-12-20T10:03:04.210Z,83.72
2022-12-20T10:05:47.057Z,83.77
2022-12-20T10:08:25.175Z,82.25
2022-12-20T10:10:57.160Z,82.50
2022-12-20T10:13:38.821Z,82.70
2022-12-20T10:16:21.411Z,82.61
2022-12-20T10:19:00.367Z,82.50
2022-12-20T10:21:41.751Z,81.77
2022-12-20T10:24:17.639Z,81.56
2022-12-20T10:26:46.782Z,81.10
2022-12-20T10:29:16.109Z,80.78
2022-12-20T10:31:44.134Z,81.19
2022-12-20T10:34:12.163Z,80.05
2022-12-20T10:36:39.987Z,81.74
2022-12-20T10:39:10.084Z,83.26
2022-12-20T10:41:51.791Z,82.22
2022-12-20T10:44:27.924Z,82.77
2022-12-20T10:46:58.214Z,83.55
2022-12-20T10:49:32.157Z,82.05
2022-12-20T10:52:02.609Z,82.49
2022-12-20T10:54:36.272Z,82.34
2022-12-20T10:57:15.735Z,83.14
2022-12-20T10:59:50.033Z,81.50
2022-12-20T11:02:26.404Z,80.25
2022-12-20T11:05:02.332Z,80.11
2022-12-20T11:07:32.615Z,79.90
2022-12-20T11:10:02.412Z,79.08
2022-12-20T11:12:30.606Z,78.63
2022-12-20T11:15:11.711Z,77.44
2022-12-20T11:17:46.429Z,77.98
2022-12-20T11:20:28.990Z,79.99
2022-12-20T11:23:08.512Z,81.80
2022-12-20T11:25:56.321Z,82.22
2022-12-20T11:28:41.852Z,81.22
2022-12-20T11:31:21.418Z,80.58
2022-12-20T11:34:01.280Z,80.10
2022-12-20T11:36:45.023Z,81.02
2022-12-20T11:39:22.575Z,78.63
2022-12-20T11:42:00.481Z,77.67
2022-12-20T11:44:53.900Z,78.17
2022-12-20T11:47:56.924Z,78.22
2022-12-20T11:50:59.726Z,78.91
2022-12-20T11:53:33.739Z,79.10
2022-12-20T11:56:07.825Z,80.40
2022-12-20T11:58:48.343Z,80.14
2022-12-20T12:01:21.039Z,79.35
2022-12-20T12:04:01.875Z,79.82
2022-12-20T12:06:34.613Z,80.02
2022-12-20T12:09:10.759Z,81.40
2022-12-20T12:14:39.835Z,81.51
2022-12-20T12:17:14.400Z,81.32
2022-12-20T12:19:50.981Z,82.39
2022-12-20T12:22:25.696Z,82.79
2022-12-20T12:24:59.152Z,81.01
2022-12-20T12:27:28.866Z,79.89
2022-12-20T12:29:59.482Z,79.40
2022-12-20T12:32:33.054Z,79.50
2022-12-20T12:35:18.308Z,80.25
2022-12-20T12:38:18.424Z,79.90
2022-12-20T12:41:15.679Z,79.72
2022-12-20T12:43:49.710Z,81.53
2022-12-20T12:46:24.118Z,79.44
2022-12-20T12:48:57.749Z,80.76
2022-12-20T12:51:32.832Z,79.99
2022-12-20T12:54:06.418Z,80.51
2022-12-20T12:56:44.607Z,78.99
2022-12-20T12:59:39.102Z,78.98
2022-12-20T13:02:27.320Z,80.05
2022-12-20T13:04:57.539Z,79.33
2022-12-20T13:07:43.651Z,79.28
2022-12-20T13:10:44.956Z,78.53
2022-12-20T13:13:23.701Z,80.47
2022-12-20T13:16:05.138Z,80.63
2022-12-20T13:18:33.325Z,81.11
2022-12-20T13:21:31.516Z,78.82
2022-12-20T13:24:40.321Z,78.52
2022-12-20T13:27:35.972Z,78.67
2022-12-20T13:30:26.302Z,78.30
2022-12-20T13:33:19.705Z,78.42
2022-12-20T13:36:03.092Z,77.92
2022-12-20T13:39:22.768Z,77.60
2022-12-20T13:42:07.343Z,77.77
2022-12-20T13:44:45.572Z,77.45
2022-12-20T13:47:50.212Z,77.86
2022-12-20T13:50:32.851Z,79.27
2022-12-20T13:53:00.788Z,79.70
2022-12-20T13:55:36.044Z,80.24
2022-12-20T13:58:12.582Z,78.13
2022-12-20T14:00:42.156Z,77.28
2022-12-20T14:03:21.343Z,76.88
2022-12-20T14:05:49.573Z,77.04
2022-12-20T14:08:21.475Z,77.48
2022-12-20T14:10:49.324Z,77.49
2022-12-20T14:13:23.490Z,76.24
2022-12-20T14:15:54.102Z,76.58
2022-12-20T14:18:24.664Z,78.00
2022-12-20T14:20:56.267Z,78.62
2022-12-20T14:23:27.315Z,79.41
2022-12-20T14:25:57.929Z,79.93
2022-12-20T14:28:32.187Z,79.32
2022-12-20T14:31:03.320Z,80.31
2022-12-20T14:33:35.200Z,79.55
2022-12-20T14:36:11.230Z,80.85
2022-12-20T14:38:41.470Z,80.79
2022-12-20T14:41:33.336Z,82.36
2022-12-20T14:44:05.214Z,81.70
2022-12-20T14:46:35.592Z,82.04
2022-12-20T14:49:16.071Z,81.92
2022-12-20T14:51:44.228Z,81.88
2022-12-20T14:54:39.823Z,82.21
2022-12-20T14:57:13.283Z,82.40
2022-12-20T14:59:41.101Z,81.78
2022-12-20T15:02:36.393Z,81.57
2022-12-20T15:05:09.888Z,82.75
2022-12-20T15:07:42.623Z,82.78
2022-12-20T15:10:10.524Z,83.05
2022-12-20T15:12:46.921Z,84.36
2022-12-20T15:15:31.231Z,83.65
2022-12-20T15:18:00.423Z,82.85
2022-12-20T15:20:28.217Z,83.71
2022-12-20T15:22:56.005Z,83.85
2022-12-20T15:25:23.793Z,84.29
2022-12-20T15:27:51.941Z,85.06
2022-12-20T15:30:19.935Z,85.22
2022-12-20T15:32:55.105Z,85.67
2022-12-20T15:35:25.810Z,86.35
2022-12-20T15:37:53.737Z,85.32
2022-12-20T15:40:21.502Z,85.57
2022-12-20T15:42:49.341Z,85.06
2022-12-20T15:45:17.502Z,85.10
2022-12-20T15:47:49.235Z,85.74
2022-12-20T15:50:17.131Z,87.13
2022-12-20T15:52:46.293Z,86.75
2022-12-20T15:55:14.115Z,88.42
2022-12-20T15:57:42.001Z,87.03
2022-12-20T16:00:12.735Z,87.33
2022-12-20T16:02:40.650Z,87.68
2022-12-20T16:05:13.594Z,87.22
2022-12-20T16:07:41.650Z,86.90
2022-12-20T16:10:15.280Z,88.16
2022-12-20T16:12:43.582Z,87.85
2022-12-20T16:15:21.485Z,88.66
2022-12-20T16:17:49.626Z,88.84
2022-12-20T16:20:17.476Z,89.44
2022-12-20T16:22:45.389Z,88.98
2022-12-20T16:25:25.994Z,89.35
2022-12-20T16:27:53.967Z,87.66
2022-12-20T16:30:22.425Z,87.60
2022-12-20T16:32:50.744Z,88.07
2022-12-20T16:35:27.415Z,87.91
2022-12-20T16:37:57.040Z,87.22
2022-12-20T16:40:27.921Z,87.49
2022-12-20T16:42:56.770Z,87.61
2022-12-20T16:45:30.346Z,88.42
2022-12-20T16:47:58.933Z,88.02
2022-12-20T16:50:28.900Z,87.24
2022-12-20T16:52:57.101Z,87.55
2022-12-20T16:55:28.409Z,87.14
2022-12-20T16:57:59.927Z,87.13
2022-12-20T17:00:28.092Z,87.94
2022-12-20T17:02:59.034Z,88.23
2022-12-20T17:05:29.536Z,87.34
2022-12-20T17:07:57.696Z,87.95
2022-12-20T17:10:28.186Z,88.36
2022-12-20T17:12:57.284Z,88.44
2022-12-20T17:15:27.803Z,89.26
2022-12-20T17:17:56.348Z,88.71
2022-12-20T17:20:24.879Z,88.45
2022-12-20T17:22:56.652Z,88.64
2022-12-20T17:25:30.906Z,89.20
2022-12-20T17:27:59.148Z,88.58
2022-12-20T17:30:27.885Z,88.58
2022-12-20T17:32:55.719Z,88.15
2022-12-20T17:35:30.405Z,87.57
2022-12-20T17:37:58.557Z,88.64
2022-12-20T17:40:27.652Z,88.56
2022-12-20T17:42:57.027Z,87.63
2022-12-20T17:45:28.667Z,87.82
2022-12-20T17:48:00.130Z,87.62
2022-12-20T17:50:28.707Z,87.57
2022-12-20T17:52:57.483Z,87.91
2022-12-20T17:55:27.416Z,86.95
2022-12-20T17:57:56.895Z,88.04
2022-12-20T18:00:30.619Z,87.96
2022-12-20T18:03:02.589Z,87.83
2022-12-20T18:05:30.764Z,87.87
2022-12-20T18:07:59.012Z,88.40
2022-12-20T18:10:26.817Z,88.85
2022-12-20T18:12:55.948Z,89.60
2022-12-20T18:15:23.878Z,89.01
2022-12-20T18:17:51.816Z,88.67
2022-12-20T18:20:19.831Z,88.68
2022-12-20T18:22:47.855Z,89.48
2022-12-20T18:25:18.210Z,88.71
2022-12-20T18:27:46.201Z,89.17
2022-12-20T18:30:15.858Z,89.33
2022-12-20T18:32:43.659Z,88.44
2022-12-20T18:35:14.087Z,88.58
2022-12-20T18:37:41.930Z,89.90
2022-12-20T18:40:10.518Z,89.40
2022-12-20T18:42:38.790Z,89.59
2022-12-20T18:45:07.340Z,90.77
2022-12-20T18:47:42.778Z,90.35
2022-12-20T18:50:14.434Z,89.89
2022-12-20T18:52:43.837Z,89.76
2022-12-20T18:55:15.566Z,89.73
2022-12-20T18:57:43.704Z,90.71
2022-12-20T19:00:12.675Z,90.35
2022-12-20T19:02:41.985Z,89.48
2022-12-20T19:05:10.264Z,90.58
2022-12-20T19:07:38.008Z,90.07
2022-12-20T19:10:06.632Z,91.11
2022-12-20T19:12:35.524Z,90.63
2022-12-20T19:15:03.512Z,92.24
2022-12-20T19:17:31.372Z,90.36
2022-12-20T19:20:00.557Z,90.25
2022-12-20T19:22:28.466Z,91.28
2022-12-20T19:24:56.758Z,91.33
2022-12-20T19:27:24.720Z,91.75
2022-12-20T19:29:54.494Z,90.19
2022-12-20T19:32:22.751Z,90.91
2022-12-20T19:34:50.629Z,91.03
2022-12-20T19:37:20.021Z,91.40
2022-12-20T19:39:47.910Z,89.66
2022-12-20T19:42:24.934Z,91.27
2022-12-20T19:44:53.352Z,90.66
2022-12-20T19:47:21.568Z,90.43
2022-12-20T19:49:49.351Z,90.02
2022-12-20T19:52:19.711Z,90.03
2022-12-20T19:54:52.800Z,89.69
2022-12-20T19:57:21.129Z,90.11
2022-12-20T19:59:55.381Z,89.37
2022-12-20T20:02:23.798Z,89.46
2022-12-20T20:04:51.795Z,89.96
2022-12-20T20:07:19.967Z,89.39
2022-12-20T20:09:48.113Z,90.21
2022-12-20T20:12:17.577Z,89.44
2022-12-20T20:14:45.737Z,89.69
2022-12-20T20:17:13.614Z,89.97
2022-12-20T20:19:42.676Z,90.10
2022-12-20T20:22:11.256Z,89.45
2022-12-20T20:24:39.294Z,90.09
2022-12-20T20:27:07.094Z,89.27
2022-12-20T20:29:36.716Z,90.13
2022-12-20T20:32:05.210Z,89.27
2022-12-20T20:34:33.036Z,89.67
2022-12-20T20:37:01.033Z,88.98
2022-12-20T20:39:29.196Z,89.68
2022-12-20T20:41:57.065Z,89.47
2022-12-20T20:44:24.860Z,90.71
2022-12-20T20:46:54.121Z,91.14
2022-12-20T20:49:22.006Z,90.03
2022-12-20T20:51:49.984Z,90.88
2022-12-20T20:54:18.055Z,90.95
2022-12-20T20:56:45.911Z,91.74
2022-12-20T20:59:17.756Z,91.92
2022-12-20T21:01:46.338Z,92.11
2022-12-20T21:04:15.713Z,91.17
2022-12-20T21:06:51.941Z,91.81
2022-12-20T21:09:20.001Z,92.10
2022-12-20T21:11:47.968Z,91.58
2022-12-20T21:14:16.670Z,91.55
2022-12-20T21:16:44.516Z,92.65
2022-12-20T21:19:12.523Z,92.09
2022-12-20T21:21:42.094Z,92.57
2022-12-20T21:24:10.087Z,92.73
2022-12-20T21:26:38.220Z,92.54
2022-12-20T21:29:06.201Z,92.19
2022-12-20T21:31:34.376Z,93.18
2022-12-20T21:34:02.386Z,92.58
2022-12-20T21:36:30.315Z,93.30
2022-12-20T21:39:00.343Z,92.99
2022-12-20T21:41:29.663Z,92.89
2022-12-20T21:43:58.701Z,93.60
2022-12-20T21:46:27.500Z,93.75
2022-12-20T21:48:56.162Z,93.65
2022-12-20T21:51:25.929Z,94.64
2022-12-20T21:53:55.618Z,93.90
2022-12-20T21:56:27.134Z,94.41
2022-12-20T21:58:55.391Z,93.78
2022-12-20T22:01:25.701Z,93.91
2022-12-20T22:03:55.180Z,92.99
2022-12-20T22:06:34.074Z,93.39
2022-12-20T22:09:07.352Z,93.18
2022-12-20T22:11:49.293Z,93.78
2022-12-20T22:14:27.248Z,93.86
2022-12-20T22:17:02.717Z,93.28
2022-12-20T22:19:36.206Z,93.87
2022-12-20T22:22:13.413Z,92.86
2022-12-20T22:24:47.609Z,93.36
2022-12-20T22:27:31.056Z,93.59
2022-12-20T22:29:59.316Z,93.69
2022-12-20T22:32:27.484Z,93.33
2022-12-20T22:34:55.573Z,93.58
2022-12-20T22:37:23.764Z,94.60
2022-12-20T22:39:51.855Z,93.44
2022-12-20T22:42:21.755Z,94.24
2022-12-20T22:44:49.843Z,93.82
2022-12-20T22:47:19.644Z,94.33
2022-12-20T22:49:47.895Z,93.95
2022-12-20T22:52:16.132Z,93.96
2022-12-20T22:54:44.668Z,93.29
2022-12-20T22:57:17.665Z,95.38
2022-12-20T22:59:49.790Z,94.58
2022-12-20T23:02:18.234Z,93.53
2022-12-20T23:04:46.338Z,93.80
2022-12-20T23:07:17.032Z,94.51
2022-12-20T23:09:45.223Z,94.18
2022-12-20T23:12:35.894Z,94.00
2022-12-20T23:15:28.248Z,93.79
2022-12-20T23:18:17.284Z,94.37
2022-12-20T23:21:09.581Z,94.52
2022-12-20T23:23:43.458Z,94.12
2022-12-20T23:26:16.815Z,94.22
2022-12-20T23:28:48.539Z,94.38
2022-12-20T23:31:26.654Z,94.56
2022-12-20T23:33:58.121Z,94.08
2022-12-20T23:36:35.061Z,94.24
2022-12-20T23:39:09.570Z,94.73
2022-12-20T23:41:40.799Z,95.12
2022-12-20T23:44:12.510Z,93.78
2022-12-20T23:46:42.189Z,94.46
2022-12-20T23:49:10.417Z,94.58
2022-12-20T23:51:38.659Z,95.13
2022-12-20T23:54:06.854Z,94.68
2022-12-20T23:56:35.330Z,94.99
2022-12-20T23:59:03.569Z,94.74
